Ina Theresa — V7UJ2 — position and weather

sailwx.info

Track history (hours):
 
Tides and Currents Weather Stations Pressure Air Temp Water Temp Dewpoint Dewpoint Depression Visibility Wind Speed Wind Dir Waves Ship Positions

Ina Theresa

Last reported at 2014-Nov-18 17:33 UTC. Time now 2014-Nov-23 08:51 UTC.
Position N 38°10' E 015°35'.

Length 122 m; draft 7.6 m.

Type: Ship. MMSI: 538004548.

Date/timePositionNaut miles runAvg speedWind from/ knotsBaromVisibWave heightAir tempDewpointWater temp
2014-Nov-18 17:33N 38°10' E 015°35'1110.8
2014-Nov-18 16:33N 38°20' E 015°38'1211.9
2014-Nov-18 15:33N 38°29' E 015°28'37510.4
2014-Nov-17 03:31N 43°14' E 010°05'1110.5
2014-Nov-17 02:31N 43°24' E 010°09'9 9.3
2014-Nov-17 01:33N 43°32' E 010°15'4 4.0
2014-Nov-17 00:32N 43°34' E 010°19'0 0.0
2014-Nov-16 23:32N 43°34' E 010°19'0 0.0
2014-Nov-16 22:32N 43°34' E 010°19'0 0.0
2014-Nov-16 21:29N 43°34' E 010°19'0 0.0
2014-Nov-16 20:32N 43°34' E 010°19'0 0.0
2014-Nov-16 19:32N 43°34' E 010°19'0 0.0
2014-Nov-16 18:32N 43°34' E 010°19'0 0.0
2014-Nov-16 17:29N 43°34' E 010°19'0 0.0
2014-Nov-16 16:32N 43°34' E 010°19'0 0.0
2014-Nov-16 15:32N 43°34' E 010°19'0 0.0
2014-Nov-16 14:32N 43°34' E 010°19'0 0.0
2014-Nov-16 13:32N 43°34' E 010°19'0 0.0
2014-Nov-16 12:32N 43°34' E 010°19'0 0.0
2014-Nov-16 11:32N 43°34' E 010°19'0 0.0
2014-Nov-16 10:32N 43°34' E 010°19'0 0.0
2014-Nov-16 09:32N 43°34' E 010°19'0 0.0
2014-Nov-16 08:32N 43°34' E 010°19'4 3.6
2014-Nov-16 07:33N 43°32' E 010°16'2 1.8
2014-Nov-16 06:33N 43°31' E 010°18'0 0.0
2014-Nov-16 05:33N 43°31' E 010°18'0 0.0
2014-Nov-16 04:33N 43°31' E 010°18'0 0.0
2014-Nov-16 03:33N 43°31' E 010°18'0 0.0
2014-Nov-16 02:33N 43°31' E 010°18'0 0.0
2014-Nov-16 01:33N 43°31' E 010°18'0 0.0
2014-Nov-16 00:33N 43°31' E 010°18'5 5.2
2014-Nov-15 23:34N 43°28' E 010°11'1111.3
2014-Nov-15 22:33N 43°20' E 010°00'1111.2
2014-Nov-15 21:34N 43°17' E 009°45'1211.6
2014-Nov-15 20:33N 43°15' E 009°30'1211.8
2014-Nov-15 19:34N 43°13' E 009°14'10812.0
2014-Nov-15 10:31N 42°51' E 006°49'1111.3
2014-Nov-15 09:33N 42°48' E 006°35'1110.8
2014-Nov-15 08:33N 42°46' E 006°20'10 9.9
2014-Nov-15 07:33N 42°47' E 006°07'1010.3
2014-Nov-15 06:34N 42°52' E 005°54'1010.2
2014-Nov-15 05:33N 42°56' E 005°42'1010.1
2014-Nov-15 04:33N 43°01' E 005°29'1410.7
2014-Nov-15 03:16N 43°07' E 005°13'811.1
2014-Nov-15 02:33N 43°11' E 005°03'1010.4
2014-Nov-15 01:33N 43°20' E 004°57'6 5.3
2014-Nov-15 00:31N 43°25' E 004°53'0 0.0
2014-Nov-14 23:31N 43°25' E 004°53'0 0.0
2014-Nov-14 22:31N 43°25' E 004°53'0 0.0
2014-Nov-14 21:31N 43°25' E 004°53'0 0.0
2014-Nov-14 20:31N 43°25' E 004°53'0 0.0
2014-Nov-14 19:31N 43°25' E 004°53'0 0.0
2014-Nov-14 18:28N 43°25' E 004°53'0 0.0
2014-Nov-14 17:31N 43°25' E 004°53'0 0.0
2014-Nov-14 16:31N 43°25' E 004°53'0 0.0
2014-Nov-14 15:31N 43°25' E 004°53'0 0.0
2014-Nov-14 14:31N 43°25' E 004°53'0 0.0
2014-Nov-14 12:31N 43°25' E 004°53'0 0.0
2014-Nov-14 11:31N 43°25' E 004°53'0 0.0
2014-Nov-14 10:28N 43°25' E 004°53'0 0.0
2014-Nov-14 09:25N 43°25' E 004°53'0 0.0
2014-Nov-14 08:31N 43°25' E 004°53'0 0.0
2014-Nov-14 07:31N 43°25' E 004°53'0 0.0
2014-Nov-14 06:31N 43°25' E 004°53'0 0.0
2014-Nov-14 05:31N 43°25' E 004°53'0 0.0
2014-Nov-14 04:31N 43°25' E 004°53'0 0.0
2014-Nov-14 03:31N 43°25' E 004°53'0 0.0
2014-Nov-14 02:32N 43°25' E 004°53'0 0.0
2014-Nov-14 01:28N 43°25' E 004°53'0 0.0
2014-Nov-14 00:31N 43°25' E 004°53'0 0.0
2014-Nov-13 23:28N 43°25' E 004°53'0 0.0
2014-Nov-13 22:28N 43°25' E 004°53'0 0.0
2014-Nov-13 21:33N 43°25' E 004°53'0 0.0
2014-Nov-13 20:33N 43°25' E 004°53'0 0.0
2014-Nov-13 19:33N 43°25' E 004°53'0 0.0
2014-Nov-13 18:34N 43°25' E 004°53'2 2.2
2014-Nov-13 17:33N 43°24' E 004°56'0 0.1
2014-Nov-13 16:33N 43°24' E 004°56'0 0.0
2014-Nov-13 15:33N 43°24' E 004°56'0 0.0
2014-Nov-13 14:33N 43°24' E 004°56'0 0.0
2014-Nov-13 13:31N 43°24' E 004°56'0 0.0
2014-Nov-13 12:31N 43°24' E 004°56'0 0.0
2014-Nov-13 11:31N 43°24' E 004°56'0 0.0
2014-Nov-13 10:31N 43°24' E 004°56'0 0.0
2014-Nov-13 09:31N 43°24' E 004°56'0 0.0
2014-Nov-13 08:31N 43°24' E 004°56'0 0.0
2014-Nov-13 07:31N 43°24' E 004°56'0 0.0
2014-Nov-13 06:31N 43°24' E 004°56'0 0.0
2014-Nov-13 05:31N 43°24' E 004°56'0 0.0
2014-Nov-13 04:31N 43°24' E 004°56'0 0.0
2014-Nov-13 03:31N 43°24' E 004°56'0 0.0
2014-Nov-13 02:31N 43°24' E 004°56'0 0.0
2014-Nov-13 01:31N 43°24' E 004°56'0 0.0
2014-Nov-13 00:31N 43°24' E 004°56'0 0.0
2014-Nov-12 23:31N 43°24' E 004°56'0 0.0
2014-Nov-12 22:31N 43°24' E 004°56'0 0.0
2014-Nov-12 21:31N 43°24' E 004°56'0 0.0
2014-Nov-12 20:31N 43°24' E 004°56'0 0.0
2014-Nov-12 19:31N 43°24' E 004°56'0 0.0
2014-Nov-12 18:31N 43°24' E 004°56'0 0.0
2014-Nov-12 17:31N 43°24' E 004°56'0 0.0
2014-Nov-12 16:31N 43°24' E 004°56'6 6.2
2014-Nov-12 15:33N 43°19' E 004°60'1211.8
2014-Nov-12 14:32N 43°08' E 005°06'1312.4
2014-Nov-12 13:31N 42°56' E 005°13'1311.9
2014-Nov-12 12:27N 42°45' E 005°21'1211.8
2014-Nov-12 11:26N 42°34' E 005°29'1211.8
2014-Nov-12 10:26N 42°24' E 005°36'25312.1
2014-Nov-11 13:33N 38°39' E 008°07'2512.3
2014-Nov-11 11:33N 38°28' E 008°35'  
Track history (hours):
 
Tides and Currents Weather Stations Pressure Air Temp Water Temp Dewpoint Dewpoint Depression Visibility Wind Speed Wind Dir Waves Ship Positions

Ina Theresa

Last reported at 2014-Nov-18 17:33 UTC. Time now 2014-Nov-23 08:51 UTC.
Position N 38°10' E 015°35'.

Length 122 m; draft 7.6 m.

Type: Ship. MMSI: 538004548.

Date/timePositionNaut miles runAvg speedWind from/ knotsBaromVisibWave heightAir tempDewpointWater temp
2014-Nov-18 17:33N 38°10' E 015°35'1110.8
2014-Nov-18 16:33N 38°20' E 015°38'1211.9
2014-Nov-18 15:33N 38°29' E 015°28'37510.4
2014-Nov-17 03:31N 43°14' E 010°05'1110.5
2014-Nov-17 02:31N 43°24' E 010°09'9 9.3
2014-Nov-17 01:33N 43°32' E 010°15'4 4.0
2014-Nov-17 00:32N 43°34' E 010°19'0 0.0
2014-Nov-16 23:32N 43°34' E 010°19'0 0.0
2014-Nov-16 22:32N 43°34' E 010°19'0 0.0
2014-Nov-16 21:29N 43°34' E 010°19'0 0.0
2014-Nov-16 20:32N 43°34' E 010°19'0 0.0
2014-Nov-16 19:32N 43°34' E 010°19'0 0.0
2014-Nov-16 18:32N 43°34' E 010°19'0 0.0
2014-Nov-16 17:29N 43°34' E 010°19'0 0.0
2014-Nov-16 16:32N 43°34' E 010°19'0 0.0
2014-Nov-16 15:32N 43°34' E 010°19'0 0.0
2014-Nov-16 14:32N 43°34' E 010°19'0 0.0
2014-Nov-16 13:32N 43°34' E 010°19'0 0.0
2014-Nov-16 12:32N 43°34' E 010°19'0 0.0
2014-Nov-16 11:32N 43°34' E 010°19'0 0.0
2014-Nov-16 10:32N 43°34' E 010°19'0 0.0
2014-Nov-16 09:32N 43°34' E 010°19'0 0.0
2014-Nov-16 08:32N 43°34' E 010°19'4 3.6
2014-Nov-16 07:33N 43°32' E 010°16'2 1.8
2014-Nov-16 06:33N 43°31' E 010°18'0 0.0
2014-Nov-16 05:33N 43°31' E 010°18'0 0.0
2014-Nov-16 04:33N 43°31' E 010°18'0 0.0
2014-Nov-16 03:33N 43°31' E 010°18'0 0.0
2014-Nov-16 02:33N 43°31' E 010°18'0 0.0
2014-Nov-16 01:33N 43°31' E 010°18'0 0.0
2014-Nov-16 00:33N 43°31' E 010°18'5 5.2
2014-Nov-15 23:34N 43°28' E 010°11'1111.3
2014-Nov-15 22:33N 43°20' E 010°00'1111.2
2014-Nov-15 21:34N 43°17' E 009°45'1211.6
2014-Nov-15 20:33N 43°15' E 009°30'1211.8
2014-Nov-15 19:34N 43°13' E 009°14'10812.0
2014-Nov-15 10:31N 42°51' E 006°49'1111.3
2014-Nov-15 09:33N 42°48' E 006°35'1110.8
2014-Nov-15 08:33N 42°46' E 006°20'10 9.9
2014-Nov-15 07:33N 42°47' E 006°07'1010.3
2014-Nov-15 06:34N 42°52' E 005°54'1010.2
2014-Nov-15 05:33N 42°56' E 005°42'1010.1
2014-Nov-15 04:33N 43°01' E 005°29'1410.7
2014-Nov-15 03:16N 43°07' E 005°13'811.1
2014-Nov-15 02:33N 43°11' E 005°03'1010.4
2014-Nov-15 01:33N 43°20' E 004°57'6 5.3
2014-Nov-15 00:31N 43°25' E 004°53'0 0.0
2014-Nov-14 23:31N 43°25' E 004°53'0 0.0
2014-Nov-14 22:31N 43°25' E 004°53'0 0.0
2014-Nov-14 21:31N 43°25' E 004°53'0 0.0
2014-Nov-14 20:31N 43°25' E 004°53'0 0.0
2014-Nov-14 19:31N 43°25' E 004°53'0 0.0
2014-Nov-14 18:28N 43°25' E 004°53'0 0.0
2014-Nov-14 17:31N 43°25' E 004°53'0 0.0
2014-Nov-14 16:31N 43°25' E 004°53'0 0.0
2014-Nov-14 15:31N 43°25' E 004°53'0 0.0
2014-Nov-14 14:31N 43°25' E 004°53'0 0.0
2014-Nov-14 12:31N 43°25' E 004°53'0 0.0
2014-Nov-14 11:31N 43°25' E 004°53'0 0.0
2014-Nov-14 10:28N 43°25' E 004°53'0 0.0
2014-Nov-14 09:25N 43°25' E 004°53'0 0.0
2014-Nov-14 08:31N 43°25' E 004°53'0 0.0
2014-Nov-14 07:31N 43°25' E 004°53'0 0.0
2014-Nov-14 06:31N 43°25' E 004°53'0 0.0
2014-Nov-14 05:31N 43°25' E 004°53'0 0.0
2014-Nov-14 04:31N 43°25' E 004°53'0 0.0
2014-Nov-14 03:31N 43°25' E 004°53'0 0.0
2014-Nov-14 02:32N 43°25' E 004°53'0 0.0
2014-Nov-14 01:28N 43°25' E 004°53'0 0.0
2014-Nov-14 00:31N 43°25' E 004°53'0 0.0
2014-Nov-13 23:28N 43°25' E 004°53'0 0.0
2014-Nov-13 22:28N 43°25' E 004°53'0 0.0
2014-Nov-13 21:33N 43°25' E 004°53'0 0.0
2014-Nov-13 20:33N 43°25' E 004°53'0 0.0
2014-Nov-13 19:33N 43°25' E 004°53'0 0.0
2014-Nov-13 18:34N 43°25' E 004°53'2 2.2
2014-Nov-13 17:33N 43°24' E 004°56'0 0.1
2014-Nov-13 16:33N 43°24' E 004°56'0 0.0
2014-Nov-13 15:33N 43°24' E 004°56'0 0.0
2014-Nov-13 14:33N 43°24' E 004°56'0 0.0
2014-Nov-13 13:31N 43°24' E 004°56'0 0.0
2014-Nov-13 12:31N 43°24' E 004°56'0 0.0
2014-Nov-13 11:31N 43°24' E 004°56'0 0.0
2014-Nov-13 10:31N 43°24' E 004°56'0 0.0
2014-Nov-13 09:31N 43°24' E 004°56'0 0.0
2014-Nov-13 08:31N 43°24' E 004°56'0 0.0
2014-Nov-13 07:31N 43°24' E 004°56'0 0.0
2014-Nov-13 06:31N 43°24' E 004°56'0 0.0
2014-Nov-13 05:31N 43°24' E 004°56'0 0.0
2014-Nov-13 04:31N 43°24' E 004°56'0 0.0
2014-Nov-13 03:31N 43°24' E 004°56'0 0.0
2014-Nov-13 02:31N 43°24' E 004°56'0 0.0
2014-Nov-13 01:31N 43°24' E 004°56'0 0.0
2014-Nov-13 00:31N 43°24' E 004°56'0 0.0
2014-Nov-12 23:31N 43°24' E 004°56'0 0.0
2014-Nov-12 22:31N 43°24' E 004°56'0 0.0
2014-Nov-12 21:31N 43°24' E 004°56'0 0.0
2014-Nov-12 20:31N 43°24' E 004°56'0 0.0
2014-Nov-12 19:31N 43°24' E 004°56'0 0.0
2014-Nov-12 18:31N 43°24' E 004°56'0 0.0
2014-Nov-12 17:31N 43°24' E 004°56'0 0.0
2014-Nov-12 16:31N 43°24' E 004°56'6 6.2
2014-Nov-12 15:33N 43°19' E 004°60'1211.8
2014-Nov-12 14:32N 43°08' E 005°06'1312.4
2014-Nov-12 13:31N 42°56' E 005°13'1311.9
2014-Nov-12 12:27N 42°45' E 005°21'1211.8
2014-Nov-12 11:26N 42°34' E 005°29'1211.8
2014-Nov-12 10:26N 42°24' E 005°36'25312.1
2014-Nov-11 13:33N 38°39' E 008°07'2512.3
2014-Nov-11 11:33N 38°28' E 008°35'  

Dump ship's entire track history